createdAt,value
2023-03-26T00:04:25.927Z,8.1
2023-03-26T00:09:25.414Z,8.1
2023-03-26T00:14:24.957Z,8.1
2023-03-26T00:19:24.448Z,8.1
2023-03-26T00:24:23.954Z,8.1
2023-03-26T00:29:23.525Z,8.1
2023-03-26T00:39:24.664Z,8.0
2023-03-26T00:44:22.033Z,8.1
2023-03-26T00:54:21.277Z,8.1
2023-03-26T00:59:20.567Z,8.1
2023-03-26T01:04:20.390Z,8.1
2023-03-26T01:09:19.521Z,8.1
2023-03-26T01:14:19.024Z,8.1
2023-03-26T01:19:18.530Z,8.1
2023-03-26T01:24:18.114Z,8.0
2023-03-26T01:29:17.603Z,8.0
2023-03-26T01:34:17.171Z,7.9
2023-03-26T01:39:16.976Z,7.9
2023-03-26T01:44:16.113Z,7.8
2023-03-26T01:49:15.635Z,7.8
2023-03-26T01:54:15.164Z,7.8
2023-03-26T01:59:14.817Z,7.7
2023-03-26T02:04:14.222Z,7.7
2023-03-26T02:09:13.773Z,7.6
2023-03-26T02:14:13.161Z,7.6
2023-03-26T02:19:12.696Z,7.6
2023-03-26T02:24:12.142Z,7.6
2023-03-26T02:29:11.890Z,7.3
2023-03-26T02:39:10.646Z,7.2
2023-03-26T02:44:09.932Z,6.9
2023-03-26T02:49:09.430Z,6.9
2023-03-26T02:54:08.864Z,6.8
2023-03-26T02:59:08.409Z,6.7
2023-03-26T03:04:07.761Z,6.6
2023-03-26T03:19:08.518Z,6.7
2023-03-26T03:24:05.371Z,6.8
2023-03-26T03:34:04.122Z,6.7
2023-03-26T03:39:03.717Z,6.6
2023-03-26T03:44:03.072Z,6.6
2023-03-26T03:54:01.936Z,6.7
2023-03-26T03:59:01.338Z,6.6
2023-03-26T04:04:01.025Z,6.4
2023-03-26T04:09:00.250Z,6.4
2023-03-26T04:13:59.663Z,6.4
2023-03-26T04:18:59.053Z,6.4
2023-03-26T04:23:58.496Z,6.1
2023-03-26T04:28:57.879Z,6.0
2023-03-26T04:33:57.467Z,6.0
2023-03-26T04:53:54.933Z,5.9
2023-03-26T04:58:54.333Z,5.9
2023-03-26T05:03:53.818Z,5.9
2023-03-26T05:08:53.148Z,5.8
2023-03-26T05:13:52.606Z,5.7
2023-03-26T05:23:51.382Z,5.7
2023-03-26T05:33:50.164Z,5.7
2023-03-26T05:38:49.727Z,5.7
2023-03-26T05:53:47.718Z,5.6
2023-03-26T06:03:46.598Z,5.7
2023-03-26T06:18:44.773Z,5.7
2023-03-26T06:23:44.118Z,5.7
2023-03-26T06:33:42.896Z,5.8
2023-03-26T06:53:40.432Z,6.0
2023-03-26T07:18:37.295Z,6.2
2023-03-26T07:23:36.620Z,6.2
2023-03-26T07:28:36.015Z,6.2
2023-03-26T07:38:34.813Z,6.4
2023-03-26T07:43:34.076Z,6.5
2023-03-26T08:03:31.885Z,7.1
2023-03-26T08:08:31.199Z,7.2
2023-03-26T08:28:29.399Z,7.4
2023-03-26T08:33:28.557Z,7.4
2023-03-26T08:38:28.086Z,7.4
2023-03-26T08:43:27.517Z,7.4
2023-03-26T08:48:27.051Z,7.4
2023-03-26T08:53:26.516Z,7.2
2023-03-26T09:03:25.548Z,7.4
2023-03-26T09:08:30.155Z,7.4
2023-03-26T09:18:23.981Z,7.6
2023-03-26T09:28:22.983Z,7.6
2023-03-26T09:33:22.369Z,7.8
2023-03-26T09:38:21.905Z,7.9
2023-03-26T09:48:20.883Z,7.8
2023-03-26T10:03:19.510Z,8.4
2023-03-26T10:08:18.958Z,8.6
2023-03-26T10:13:20.833Z,8.8
2023-03-26T10:18:27.550Z,9.1
2023-03-26T10:23:17.808Z,9.1
2023-03-26T10:28:17.217Z,8.9
2023-03-26T10:33:16.979Z,9.3
2023-03-26T10:38:16.426Z,9.0
2023-03-26T10:43:15.935Z,9.0
2023-03-26T10:48:17.513Z,9.0
2023-03-26T10:53:15.082Z,9.2
2023-03-26T10:58:14.638Z,9.0
2023-03-26T11:03:14.228Z,8.7
2023-03-26T11:08:15.773Z,8.5
2023-03-26T11:13:13.340Z,8.4
2023-03-26T11:18:12.904Z,8.4
2023-03-26T11:23:12.353Z,8.5
2023-03-26T11:28:13.612Z,8.3
2023-03-26T11:33:11.427Z,8.2
2023-03-26T11:38:13.292Z,8.4
2023-03-26T11:43:10.345Z,8.5
2023-03-26T11:48:09.875Z,8.3
2023-03-26T11:53:11.277Z,8.2
2023-03-26T11:58:10.124Z,8.2
2023-03-26T12:03:08.241Z,8.4
2023-03-26T12:08:07.634Z,8.4
2023-03-26T12:13:07.052Z,8.4
2023-03-26T12:18:06.561Z,8.3
2023-03-26T12:23:06.055Z,8.1
2023-03-26T12:28:05.482Z,7.9
2023-03-26T12:48:04.466Z,8.0
2023-03-26T12:53:02.750Z,8.0
2023-03-26T12:58:13.630Z,8.1
2023-03-26T13:03:01.810Z,8.1
2023-03-26T13:08:01.330Z,8.1
2023-03-26T13:13:02.634Z,8.1
2023-03-26T13:18:00.114Z,8.4
2023-03-26T13:22:59.471Z,8.4
2023-03-26T13:32:58.551Z,8.1
2023-03-26T13:37:57.924Z,8.2
2023-03-26T13:42:57.624Z,8.8
2023-03-26T13:47:57.105Z,8.6
2023-03-26T13:52:56.393Z,8.6
2023-03-26T13:57:55.837Z,8.5
2023-03-26T14:07:57.132Z,8.7
2023-03-26T14:12:54.284Z,8.9
2023-03-26T14:17:53.874Z,8.6
2023-03-26T14:22:53.293Z,8.6
2023-03-26T14:32:52.330Z,8.8
2023-03-26T14:37:51.748Z,8.9
2023-03-26T14:42:51.156Z,8.6
2023-03-26T14:47:50.714Z,8.6
2023-03-26T14:52:50.161Z,8.6
2023-03-26T14:57:49.784Z,8.6
2023-03-26T15:12:48.232Z,8.8
2023-03-26T15:17:47.682Z,8.6
2023-03-26T15:22:47.173Z,8.5
2023-03-26T15:27:46.665Z,8.4
2023-03-26T15:32:46.210Z,8.5
2023-03-26T15:37:45.652Z,8.5
2023-03-26T15:42:45.195Z,8.6
2023-03-26T15:47:44.691Z,8.7
2023-03-26T15:52:44.220Z,8.4
2023-03-26T15:57:43.695Z,8.3
2023-03-26T16:02:43.188Z,8.3
2023-03-26T16:12:42.182Z,8.4
2023-03-26T16:17:41.717Z,8.6
2023-03-26T16:22:42.984Z,8.4
2023-03-26T16:27:40.662Z,8.4
2023-03-26T16:32:40.198Z,8.5
2023-03-26T16:37:39.720Z,8.4
2023-03-26T16:42:39.200Z,8.5
2023-03-26T16:47:38.724Z,8.5
2023-03-26T16:52:38.227Z,8.4
2023-03-26T16:57:37.828Z,8.2
2023-03-26T17:02:37.204Z,8.2
2023-03-26T17:07:36.596Z,8.1
2023-03-26T17:12:36.088Z,8.1
2023-03-26T17:17:35.695Z,8.2
2023-03-26T17:22:35.266Z,8.2
2023-03-26T17:27:34.721Z,8.2
2023-03-26T17:32:34.042Z,8.2
2023-03-26T17:37:33.559Z,8.2
2023-03-26T17:42:33.128Z,8.2
2023-03-26T17:47:32.535Z,8.1
2023-03-26T17:52:32.007Z,8.1
2023-03-26T17:57:31.464Z,8.0
2023-03-26T18:02:31.024Z,8.0
2023-03-26T18:07:30.490Z,7.9
2023-03-26T18:12:29.900Z,7.9
2023-03-26T18:17:29.427Z,8.0
2023-03-26T18:22:28.878Z,7.9
2023-03-26T18:27:28.369Z,7.8
2023-03-26T18:32:27.884Z,7.8
2023-03-26T18:37:27.351Z,7.7
2023-03-26T18:42:26.867Z,7.7
2023-03-26T18:47:26.399Z,7.6
2023-03-26T18:52:25.810Z,7.6
2023-03-26T18:57:25.247Z,7.6
2023-03-26T19:02:24.788Z,7.5
2023-03-26T19:07:24.151Z,7.4
2023-03-26T19:12:23.568Z,7.4
2023-03-26T19:17:23.095Z,7.4
2023-03-26T19:22:22.490Z,7.4
2023-03-26T19:27:21.930Z,7.4
2023-03-26T19:32:21.389Z,7.4
2023-03-26T19:42:20.317Z,7.3
2023-03-26T19:47:19.873Z,7.3
2023-03-26T19:52:20.277Z,7.3
2023-03-26T19:57:18.813Z,7.2
2023-03-26T20:02:18.252Z,7.2
2023-03-26T20:07:17.636Z,7.2
2023-03-26T20:12:19.491Z,7.2
2023-03-26T20:17:16.580Z,7.2
2023-03-26T20:22:16.072Z,7.2
2023-03-26T20:27:15.484Z,7.2
2023-03-26T20:32:14.989Z,7.2
2023-03-26T20:37:14.484Z,7.1
2023-03-26T20:42:15.432Z,7.1
2023-03-26T20:47:13.397Z,7.1
2023-03-26T20:52:12.811Z,7.1
2023-03-26T20:57:12.272Z,7.1
2023-03-26T21:02:11.787Z,7.1
2023-03-26T21:07:17.623Z,7.1
2023-03-26T21:12:10.553Z,7.0
2023-03-26T21:17:09.980Z,7.0
2023-03-26T21:22:09.672Z,7.0
2023-03-26T21:27:08.886Z,7.1
2023-03-26T21:32:08.312Z,7.0
2023-03-26T21:37:07.776Z,7.1
2023-03-26T21:42:07.272Z,6.9
2023-03-26T21:47:08.463Z,6.9
2023-03-26T21:52:06.136Z,7.0
2023-03-26T21:57:05.586Z,6.9
2023-03-26T22:02:04.960Z,6.9
2023-03-26T22:07:04.421Z,6.9
2023-03-26T22:12:03.887Z,6.8
2023-03-26T22:17:03.303Z,6.8
2023-03-26T22:22:02.761Z,6.7
2023-03-26T22:27:02.200Z,6.9
2023-03-26T22:32:01.700Z,6.8
2023-03-26T22:37:01.114Z,6.7
2023-03-26T22:42:00.570Z,6.6
2023-03-26T22:47:02.403Z,6.6
2023-03-26T22:51:59.517Z,6.6
2023-03-26T22:56:58.944Z,6.6
2023-03-26T23:01:58.477Z,6.4
2023-03-26T23:06:57.824Z,6.4
2023-03-26T23:16:56.746Z,6.3
2023-03-26T23:21:56.220Z,6.2
2023-03-26T23:26:55.669Z,6.3
2023-03-26T23:31:57.039Z,6.2
2023-03-26T23:36:54.446Z,6.2
2023-03-26T23:41:53.917Z,6.2
2023-03-26T23:46:53.321Z,6.1
2023-03-26T23:51:52.771Z,6.1
2023-03-26T23:56:52.218Z,6.1
